createdAt,value
2023-03-18T00:01:12.386Z,10.27
2023-03-18T00:03:39.085Z,11.33
2023-03-18T00:06:09.086Z,9.77
2023-03-18T00:08:35.928Z,11.50
2023-03-18T00:11:02.607Z,10.00
2023-03-18T00:13:29.009Z,13.63
2023-03-18T00:15:55.677Z,10.47
2023-03-18T00:18:22.111Z,12.50
2023-03-18T00:20:48.952Z,13.80
2023-03-18T00:23:15.586Z,12.90
2023-03-18T00:25:42.872Z,11.20
2023-03-18T00:28:09.474Z,10.53
2023-03-18T00:30:38.900Z,12.23
2023-03-18T00:33:06.471Z,11.97
2023-03-18T00:35:33.592Z,10.83
2023-03-18T00:38:00.666Z,10.30
2023-03-18T00:40:30.876Z,12.23
2023-03-18T00:43:01.921Z,11.27
2023-03-18T00:45:28.286Z,11.27
2023-03-18T00:47:54.836Z,11.63
2023-03-18T00:50:21.689Z,11.23
2023-03-18T00:52:49.024Z,15.00
2023-03-18T00:55:16.061Z,12.43
2023-03-18T00:57:42.500Z,12.57
2023-03-18T01:00:09.760Z,11.37
2023-03-18T01:02:36.380Z,12.13
2023-03-18T01:05:04.358Z,10.10
2023-03-18T01:07:30.735Z,9.27
2023-03-18T01:09:57.394Z,9.83
2023-03-18T01:12:25.585Z,8.67
2023-03-18T01:14:52.688Z,9.40
2023-03-18T01:17:19.072Z,9.73
2023-03-18T01:19:45.942Z,7.73
2023-03-18T01:22:12.328Z,9.37
2023-03-18T01:24:39.817Z,10.60
2023-03-18T01:27:06.324Z,10.23
2023-03-18T01:29:33.034Z,9.63
2023-03-18T01:32:00.319Z,8.23
2023-03-18T01:34:26.824Z,10.70
2023-03-18T01:36:53.891Z,10.10
2023-03-18T01:39:20.685Z,8.57
2023-03-18T01:41:47.367Z,7.83
2023-03-18T01:44:17.592Z,9.80
2023-03-18T01:46:48.337Z,11.27
2023-03-18T01:49:25.063Z,9.27
2023-03-18T01:51:59.633Z,9.93
2023-03-18T01:54:28.524Z,8.93
2023-03-18T01:56:55.756Z,9.30
2023-03-18T01:59:26.366Z,8.50
2023-03-18T02:02:02.813Z,8.47
2023-03-18T02:11:33.914Z,8.00
2023-03-18T02:14:01.494Z,9.03
2023-03-18T02:16:34.131Z,8.07
2023-03-18T02:19:09.563Z,7.97
2023-03-18T02:22:11.034Z,7.63
2023-03-18T02:25:15.149Z,8.57
2023-03-18T02:27:48.668Z,9.80
2023-03-18T02:30:25.973Z,9.37
2023-03-18T02:32:55.141Z,7.50
2023-03-18T02:35:22.164Z,10.30
2023-03-18T02:37:48.605Z,8.70
2023-03-18T02:40:23.746Z,7.93
2023-03-18T02:42:50.963Z,9.20
2023-03-18T02:45:33.929Z,12.00
2023-03-18T02:48:05.213Z,8.87
2023-03-18T02:50:31.885Z,8.03
2023-03-18T02:52:59.466Z,8.20
2023-03-18T02:55:25.845Z,8.57
2023-03-18T02:57:52.246Z,9.63
2023-03-18T03:00:18.830Z,7.33
2023-03-18T03:02:45.589Z,8.10
2023-03-18T03:05:12.384Z,11.20
2023-03-18T03:07:38.783Z,8.33
2023-03-18T03:10:06.804Z,7.57
2023-03-18T03:12:33.706Z,8.60
2023-03-18T03:15:01.005Z,10.13
2023-03-18T03:17:27.382Z,9.93
2023-03-18T03:19:53.787Z,8.97
2023-03-18T03:22:20.195Z,7.73
2023-03-18T03:24:46.672Z,7.60
2023-03-18T03:27:13.112Z,8.53
2023-03-18T03:29:39.511Z,8.50
2023-03-18T03:32:06.260Z,9.40
2023-03-18T03:34:33.665Z,9.37
2023-03-18T03:37:00.056Z,10.90
2023-03-18T03:39:27.326Z,11.47
2023-03-18T03:41:53.776Z,8.77
2023-03-18T03:44:20.286Z,11.80
2023-03-18T03:46:46.831Z,9.77
2023-03-18T03:49:13.403Z,8.77
2023-03-18T03:51:39.812Z,7.37
2023-03-18T03:54:06.305Z,10.23
2023-03-18T03:56:33.127Z,7.67
2023-03-18T03:59:00.291Z,10.57
2023-03-18T04:01:27.220Z,8.90
2023-03-18T04:03:53.839Z,9.27
2023-03-18T04:06:20.275Z,8.83
2023-03-18T04:08:46.788Z,8.87
2023-03-18T04:11:13.391Z,9.00
2023-03-18T04:13:39.828Z,9.27
2023-03-18T04:16:07.703Z,8.57
2023-03-18T04:18:34.231Z,7.07
2023-03-18T04:21:00.625Z,8.77
2023-03-18T04:23:27.754Z,9.57
2023-03-18T04:25:54.172Z,11.60
2023-03-18T04:28:21.187Z,8.57
2023-03-18T04:30:48.997Z,8.23
2023-03-18T04:33:15.433Z,9.10
2023-03-18T04:35:44.925Z,8.50
2023-03-18T04:38:11.959Z,11.77
2023-03-18T04:40:38.489Z,9.93
2023-03-18T04:43:04.894Z,7.97
2023-03-18T04:45:31.289Z,9.00
2023-03-18T04:47:57.717Z,6.83
2023-03-18T04:50:24.858Z,8.60
2023-03-18T04:52:51.537Z,8.27
2023-03-18T04:55:20.933Z,8.13
2023-03-18T04:57:48.390Z,8.80
2023-03-18T05:00:17.570Z,8.13
2023-03-18T05:02:44.279Z,8.27
2023-03-18T05:05:10.765Z,7.80
2023-03-18T05:07:37.574Z,7.83
2023-03-18T05:10:06.900Z,9.43
2023-03-18T05:12:33.886Z,7.93
2023-03-18T05:15:00.456Z,9.77
2023-03-18T05:17:26.909Z,8.53
2023-03-18T05:19:53.410Z,7.83
2023-03-18T05:22:21.930Z,8.23
2023-03-18T05:24:48.749Z,10.33
2023-03-18T05:27:18.262Z,9.07
2023-03-18T05:29:45.865Z,10.50
2023-03-18T05:32:12.952Z,8.37
2023-03-18T05:34:40.913Z,7.30
2023-03-18T05:37:10.031Z,8.17
2023-03-18T05:39:37.434Z,10.03
2023-03-18T05:42:04.846Z,8.80
2023-03-18T05:44:32.539Z,14.00
2023-03-18T05:46:59.028Z,11.03
2023-03-18T05:49:25.669Z,9.93
2023-03-18T05:51:54.718Z,10.30
2023-03-18T05:54:21.900Z,10.17
2023-03-18T05:56:48.311Z,11.07
2023-03-18T05:59:15.302Z,12.33
2023-03-18T06:01:41.973Z,10.93
2023-03-18T06:04:10.485Z,13.40
2023-03-18T06:06:40.308Z,12.90
2023-03-18T06:09:08.863Z,14.27
2023-03-18T06:11:35.411Z,14.57
2023-03-18T06:14:01.845Z,12.83
2023-03-18T06:16:28.830Z,12.70
2023-03-18T06:18:55.552Z,13.07
2023-03-18T06:21:22.565Z,13.47
2023-03-18T06:23:49.670Z,11.73
2023-03-18T06:26:16.032Z,12.63
2023-03-18T06:28:42.841Z,11.10
2023-03-18T06:31:10.750Z,11.77
2023-03-18T06:33:38.170Z,13.53
2023-03-18T06:36:05.601Z,11.63
2023-03-18T06:38:32.926Z,12.23
2023-03-18T06:40:59.850Z,13.10
2023-03-18T06:43:27.111Z,10.13
2023-03-18T06:45:53.821Z,14.57
2023-03-18T06:48:20.354Z,12.70
2023-03-18T06:50:46.732Z,11.53
2023-03-18T06:53:14.422Z,15.83
2023-03-18T06:55:41.490Z,17.87
2023-03-18T06:58:07.921Z,13.10
2023-03-18T07:00:35.996Z,12.93
2023-03-18T07:03:02.780Z,11.03
2023-03-18T07:05:29.297Z,10.40
2023-03-18T07:07:55.738Z,11.80
2023-03-18T07:10:25.447Z,14.27
2023-03-18T07:12:52.310Z,11.57
2023-03-18T07:15:22.494Z,13.00
2023-03-18T07:17:50.096Z,12.87
2023-03-18T07:20:17.210Z,14.57
2023-03-18T07:22:45.284Z,11.97
2023-03-18T07:25:11.707Z,12.97
2023-03-18T07:27:38.553Z,13.47
2023-03-18T07:30:05.582Z,12.33
2023-03-18T07:32:32.504Z,11.37
2023-03-18T07:34:59.196Z,12.77
2023-03-18T07:37:26.141Z,13.43
2023-03-18T07:39:53.141Z,11.30
2023-03-18T07:42:19.541Z,13.47
2023-03-18T07:44:46.208Z,13.07
2023-03-18T07:47:14.600Z,14.27
2023-03-18T07:49:41.618Z,15.40
2023-03-18T07:52:08.818Z,13.10
2023-03-18T07:54:35.872Z,13.40
2023-03-18T07:57:03.784Z,13.73
2023-03-18T07:59:30.400Z,13.33
2023-03-18T08:01:56.810Z,12.93
2023-03-18T08:04:23.823Z,10.43
2023-03-18T08:06:50.592Z,15.63
2023-03-18T08:09:17.193Z,12.30
2023-03-18T08:11:43.605Z,14.90
2023-03-18T08:14:10.380Z,13.20
2023-03-18T08:16:36.777Z,13.63
2023-03-18T08:19:03.997Z,19.20
2023-03-18T08:21:30.734Z,11.53
2023-03-18T08:23:57.305Z,13.97
2023-03-18T08:26:23.932Z,12.20
2023-03-18T08:28:50.524Z,14.63
2023-03-18T08:31:17.193Z,12.53
2023-03-18T08:33:43.607Z,11.63
2023-03-18T08:36:10.085Z,11.73
2023-03-18T08:38:36.515Z,12.17
2023-03-18T08:41:03.900Z,11.43
2023-03-18T08:43:30.321Z,12.43
2023-03-18T08:45:57.585Z,12.40
2023-03-18T08:48:25.633Z,13.23
2023-03-18T08:50:52.588Z,11.50
2023-03-18T08:53:19.678Z,11.30
2023-03-18T08:55:47.001Z,11.27
2023-03-18T08:58:13.500Z,12.77
2023-03-18T09:00:41.646Z,11.73
2023-03-18T09:03:09.037Z,11.90
2023-03-18T09:05:35.842Z,11.63
2023-03-18T09:08:02.260Z,15.63
2023-03-18T09:10:30.234Z,14.60
2023-03-18T09:12:56.643Z,11.00
2023-03-18T09:15:23.183Z,12.80
2023-03-18T09:18:07.999Z,13.70
2023-03-18T09:20:34.948Z,10.03
2023-03-18T09:23:02.272Z,9.83
2023-03-18T09:25:28.713Z,11.93
2023-03-18T09:27:55.293Z,11.50
2023-03-18T09:30:21.745Z,11.60
2023-03-18T09:32:48.807Z,11.50
2023-03-18T09:35:16.436Z,13.73
2023-03-18T09:37:43.906Z,11.07
2023-03-18T09:40:22.188Z,11.07
2023-03-18T09:43:00.913Z,13.13
2023-03-18T09:45:38.864Z,10.87
2023-03-18T09:48:47.099Z,10.27
2023-03-18T09:51:37.257Z,12.20
2023-03-18T09:54:12.537Z,11.47
2023-03-18T09:56:40.051Z,15.20
2023-03-18T09:59:22.641Z,12.47
2023-03-18T10:01:54.304Z,11.23
2023-03-18T10:04:23.147Z,10.83
2023-03-18T10:06:54.592Z,11.27
2023-03-18T10:09:28.410Z,12.87
2023-03-18T10:12:17.858Z,11.60
2023-03-18T10:15:04.319Z,11.03
2023-03-18T10:17:43.153Z,11.80
2023-03-18T10:20:32.618Z,13.27
2023-03-18T10:23:08.371Z,11.33
2023-03-18T10:25:39.529Z,12.97
2023-03-18T10:28:05.897Z,10.87
2023-03-18T10:30:50.743Z,13.13
2023-03-18T10:33:46.625Z,14.83
2023-03-18T10:36:28.646Z,14.23
2023-03-18T10:38:57.695Z,10.90
2023-03-18T10:41:33.745Z,16.10
2023-03-18T10:44:04.593Z,13.50
2023-03-18T10:46:33.745Z,13.37
2023-03-18T10:49:08.039Z,12.37
2023-03-18T10:51:43.764Z,15.43
2023-03-18T10:54:13.925Z,13.23
2023-03-18T10:56:40.380Z,12.33
2023-03-18T10:59:18.450Z,14.67
2023-03-18T11:01:51.316Z,13.47
2023-03-18T11:04:21.610Z,13.93
2023-03-18T11:07:03.656Z,13.57
2023-03-18T11:09:36.443Z,13.33
2023-03-18T11:12:14.213Z,14.20
2023-03-18T11:14:42.284Z,13.40
2023-03-18T11:17:35.765Z,13.00
2023-03-18T11:20:24.749Z,14.47
2023-03-18T11:22:55.400Z,13.50
2023-03-18T11:25:26.596Z,12.77
2023-03-18T11:27:59.227Z,15.40
2023-03-18T11:30:34.641Z,16.77
2023-03-18T11:33:05.640Z,11.83
2023-03-18T11:35:44.750Z,16.43
2023-03-18T11:38:28.671Z,16.63
2023-03-18T11:41:22.335Z,16.83
2023-03-18T11:44:03.325Z,16.47
2023-03-18T11:46:43.331Z,14.77
2023-03-18T11:49:14.693Z,15.07
2023-03-18T11:51:48.776Z,14.63
2023-03-18T11:54:49.304Z,16.57
2023-03-18T11:57:17.482Z,15.23
2023-03-18T11:59:53.865Z,14.37
2023-03-18T12:02:39.425Z,14.13
2023-03-18T12:05:30.890Z,13.17
2023-03-18T12:08:15.344Z,17.47
2023-03-18T12:10:50.285Z,14.80
2023-03-18T12:13:37.413Z,15.13
2023-03-18T12:16:21.980Z,13.07
2023-03-18T12:19:07.128Z,14.17
2023-03-18T12:22:04.226Z,15.93
2023-03-18T12:24:31.108Z,16.00
2023-03-18T12:27:19.144Z,16.17
2023-03-18T12:29:46.160Z,17.23
2023-03-18T12:32:31.095Z,15.27
2023-03-18T12:35:07.939Z,16.20
2023-03-18T12:37:53.545Z,16.73
2023-03-18T12:40:34.976Z,18.30
2023-03-18T12:43:34.422Z,16.77
2023-03-18T12:46:14.534Z,16.43
2023-03-18T12:48:52.785Z,17.00
2023-03-18T12:51:25.341Z,15.57
2023-03-18T12:53:55.735Z,18.77
2023-03-18T12:56:29.987Z,17.00
2023-03-18T12:59:11.754Z,17.80
2023-03-18T13:01:47.992Z,17.83
2023-03-18T13:04:22.202Z,15.97
2023-03-18T13:07:03.627Z,16.23
2023-03-18T13:09:40.039Z,19.40
2023-03-18T13:12:20.797Z,13.93
2023-03-18T13:15:15.582Z,16.07
2023-03-18T13:17:44.909Z,15.03
2023-03-18T13:20:13.310Z,19.60
2023-03-18T13:22:42.935Z,13.60
2023-03-18T13:25:41.020Z,14.23
2023-03-18T13:28:41.711Z,16.63
2023-03-18T13:31:46.627Z,12.97
2023-03-18T13:34:49.959Z,16.40
2023-03-18T13:37:44.493Z,12.70
2023-03-18T13:40:23.479Z,13.13
2023-03-18T13:42:51.569Z,14.57
2023-03-18T13:45:26.341Z,19.73
2023-03-18T13:48:16.325Z,17.30
2023-03-18T13:50:44.933Z,15.27
2023-03-18T13:53:31.981Z,16.40
2023-03-18T13:55:58.320Z,18.10
2023-03-18T13:58:30.172Z,16.80
2023-03-18T14:00:56.947Z,13.63
2023-03-18T14:03:29.880Z,15.57
2023-03-18T14:06:16.591Z,15.43
2023-03-18T14:08:42.981Z,13.47
2023-03-18T14:11:22.877Z,26.23
2023-03-18T14:14:01.998Z,16.90
2023-03-18T14:16:46.891Z,16.37
2023-03-18T14:19:19.031Z,16.17
2023-03-18T14:21:49.203Z,14.47
2023-03-18T14:24:16.038Z,15.97
2023-03-18T14:26:42.882Z,15.83
2023-03-18T14:29:09.715Z,15.47
2023-03-18T14:31:39.149Z,16.23
2023-03-18T14:34:17.641Z,14.87
2023-03-18T14:36:53.100Z,15.37
2023-03-18T14:39:41.455Z,12.33
2023-03-18T14:42:34.522Z,14.00
2023-03-18T14:45:35.231Z,12.17
2023-03-18T14:48:18.699Z,14.67
2023-03-18T14:50:49.139Z,14.10
2023-03-18T14:53:21.003Z,10.80
2023-03-18T14:55:48.148Z,16.57
2023-03-18T14:58:17.393Z,16.27
2023-03-18T15:00:45.371Z,13.93
2023-03-18T15:03:20.826Z,14.30
2023-03-18T15:05:47.774Z,12.97
2023-03-18T15:08:21.241Z,13.37
2023-03-18T15:10:50.528Z,12.30
2023-03-18T15:13:22.404Z,16.27
2023-03-18T15:15:49.714Z,13.87
2023-03-18T15:18:29.694Z,12.23
2023-03-18T15:21:07.105Z,14.87
2023-03-18T15:23:40.402Z,12.03
2023-03-18T15:26:09.905Z,17.43
2023-03-18T15:28:36.810Z,12.30
2023-03-18T15:31:05.673Z,13.53
2023-03-18T15:33:37.216Z,12.23
2023-03-18T15:36:14.120Z,13.87
2023-03-18T15:38:48.952Z,12.97
2023-03-18T15:41:21.504Z,14.20
2023-03-18T15:43:51.309Z,14.00
2023-03-18T15:46:32.626Z,16.07
2023-03-18T15:49:05.365Z,12.33
2023-03-18T15:51:47.816Z,11.13
2023-03-18T15:54:26.503Z,13.57
2023-03-18T15:56:55.298Z,11.87
2023-03-18T15:59:30.079Z,13.57
2023-03-18T16:01:58.283Z,10.43
2023-03-18T16:04:29.398Z,13.03
2023-03-18T16:06:55.850Z,11.77
2023-03-18T16:09:24.984Z,14.77
2023-03-18T16:11:59.029Z,11.33
2023-03-18T16:14:30.942Z,10.30
2023-03-18T16:16:57.847Z,11.50
2023-03-18T16:19:28.175Z,11.77
2023-03-18T16:21:58.794Z,13.53
2023-03-18T16:24:25.992Z,11.57
2023-03-18T16:26:53.272Z,10.47
2023-03-18T16:29:33.559Z,14.70
2023-03-18T16:32:00.972Z,13.80
2023-03-18T16:34:27.824Z,14.73
2023-03-18T16:36:54.716Z,13.97
2023-03-18T16:39:33.998Z,14.57
2023-03-18T16:42:01.344Z,15.23
2023-03-18T16:44:28.066Z,11.80
2023-03-18T16:46:57.416Z,18.73
2023-03-18T16:49:31.537Z,18.23
2023-03-18T16:51:58.932Z,18.07
2023-03-18T16:54:32.412Z,14.97
2023-03-18T16:57:02.116Z,15.13
2023-03-18T16:59:31.453Z,15.90
2023-03-18T17:01:57.961Z,13.60
2023-03-18T17:04:33.205Z,17.83
2023-03-18T17:07:02.089Z,13.93
2023-03-18T17:09:28.509Z,14.07
2023-03-18T17:12:00.635Z,13.60
2023-03-18T17:14:30.030Z,12.10
2023-03-18T17:16:59.258Z,12.27
2023-03-18T17:19:27.103Z,13.07
2023-03-18T17:21:56.455Z,15.60
2023-03-18T17:24:22.919Z,17.60
2023-03-18T17:26:51.501Z,15.30
2023-03-18T17:29:24.412Z,17.17
2023-03-18T17:31:52.043Z,15.17
2023-03-18T17:34:18.659Z,17.17
2023-03-18T17:36:45.134Z,19.03
2023-03-18T17:39:11.692Z,15.03
2023-03-18T17:41:38.100Z,19.07
2023-03-18T17:44:21.204Z,17.53
2023-03-18T17:46:47.673Z,19.30
2023-03-18T17:49:14.369Z,17.20
2023-03-18T17:51:41.267Z,17.00
2023-03-18T17:54:12.294Z,19.97
2023-03-18T17:56:38.860Z,19.00
2023-03-18T17:59:14.759Z,19.03
2023-03-18T18:01:42.608Z,22.77
2023-03-18T18:04:15.896Z,18.50
2023-03-18T18:06:43.439Z,17.57
2023-03-18T18:09:13.379Z,20.63
2023-03-18T18:11:45.430Z,18.70
2023-03-18T18:14:23.558Z,23.13
2023-03-18T18:16:50.561Z,20.40
2023-03-18T18:19:17.630Z,20.00
2023-03-18T18:21:44.941Z,20.77
2023-03-18T18:24:28.958Z,19.90
2023-03-18T18:26:55.741Z,19.50
2023-03-18T18:29:28.291Z,22.77
2023-03-18T18:31:55.106Z,20.77
2023-03-18T18:34:21.934Z,22.73
2023-03-18T18:36:49.714Z,21.67
2023-03-18T18:39:16.468Z,23.37
2023-03-18T18:41:42.934Z,24.03
2023-03-18T18:44:09.452Z,25.27
2023-03-18T18:46:36.369Z,18.53
2023-03-18T18:49:03.324Z,17.33
2023-03-18T18:51:29.681Z,18.70
2023-03-18T18:53:56.136Z,15.30
2023-03-18T18:56:34.325Z,18.80
2023-03-18T18:59:01.953Z,14.17
2023-03-18T19:01:28.324Z,19.23
2023-03-18T19:03:55.865Z,15.60
2023-03-18T19:06:30.842Z,19.03
2023-03-18T19:09:03.228Z,16.77
2023-03-18T19:11:29.670Z,18.47
2023-03-18T19:14:17.806Z,18.27
2023-03-18T19:16:44.351Z,17.63
2023-03-18T19:19:20.042Z,17.00
2023-03-18T19:21:47.029Z,17.20
2023-03-18T19:24:28.290Z,15.13
2023-03-18T19:26:57.621Z,18.80
2023-03-18T19:29:24.739Z,17.83
2023-03-18T19:31:51.561Z,20.67
2023-03-18T19:34:20.105Z,19.27
2023-03-18T19:36:49.028Z,18.77
2023-03-18T19:39:17.383Z,17.10
2023-03-18T19:41:45.597Z,15.53
2023-03-18T19:44:21.049Z,17.93
2023-03-18T19:46:48.870Z,16.80
2023-03-18T19:49:24.123Z,17.77
2023-03-18T19:51:51.026Z,17.80
2023-03-18T19:54:32.772Z,18.67
2023-03-18T19:57:06.741Z,19.70
2023-03-18T19:59:39.045Z,18.70
2023-03-18T20:02:18.605Z,16.30
2023-03-18T20:04:45.450Z,17.33
2023-03-18T20:07:11.842Z,19.20
2023-03-18T20:09:39.351Z,18.50
2023-03-18T20:12:07.085Z,20.40
2023-03-18T20:14:38.394Z,24.20
2023-03-18T20:17:28.312Z,22.27
2023-03-18T20:19:55.114Z,21.40
2023-03-18T20:22:40.104Z,24.73
2023-03-18T20:25:11.142Z,23.40
2023-03-18T20:27:37.545Z,25.53
2023-03-18T20:30:30.296Z,21.80
2023-03-18T20:32:57.371Z,25.77
2023-03-18T20:35:28.798Z,23.27
2023-03-18T20:37:57.486Z,25.67
2023-03-18T20:40:26.727Z,23.90
2023-03-18T20:42:53.268Z,25.90
2023-03-18T20:45:22.092Z,22.97
2023-03-18T20:47:49.116Z,26.40
2023-03-18T20:50:18.629Z,26.27
2023-03-18T20:52:47.029Z,20.80
2023-03-18T20:55:30.467Z,24.07
2023-03-18T20:57:57.909Z,21.70
2023-03-18T21:00:27.738Z,21.60
2023-03-18T21:02:58.071Z,23.20
2023-03-18T21:05:26.153Z,18.80
2023-03-18T21:07:53.103Z,21.67
2023-03-18T21:10:28.612Z,23.23
2023-03-18T21:12:55.125Z,19.90
2023-03-18T21:15:27.044Z,21.60
2023-03-18T21:17:54.090Z,23.47
2023-03-18T21:20:29.964Z,18.80
2023-03-18T21:22:57.045Z,22.67
2023-03-18T21:25:26.826Z,21.30
2023-03-18T21:27:53.655Z,22.57
2023-03-18T21:30:22.194Z,18.47
2023-03-18T21:32:51.085Z,18.73
2023-03-18T21:35:24.319Z,17.73
2023-03-18T21:37:51.857Z,17.30
2023-03-18T21:40:23.683Z,18.27
2023-03-18T21:42:51.504Z,18.87
2023-03-18T21:45:21.339Z,19.87
2023-03-18T21:47:47.750Z,22.37
2023-03-18T21:50:19.484Z,20.77
2023-03-18T21:52:47.467Z,20.63
2023-03-18T21:55:14.515Z,20.13
2023-03-18T21:57:40.969Z,18.10
2023-03-18T22:00:08.496Z,17.83
2023-03-18T22:02:37.573Z,17.30
2023-03-18T22:05:10.241Z,17.40
2023-03-18T22:07:36.661Z,17.90
2023-03-18T22:10:03.249Z,17.00
2023-03-18T22:12:31.816Z,16.27
2023-03-18T22:14:59.988Z,15.80
2023-03-18T22:17:31.884Z,16.30
2023-03-18T22:20:01.704Z,14.30
2023-03-18T22:22:37.195Z,14.20
2023-03-18T22:25:04.119Z,13.70
2023-03-18T22:27:31.290Z,13.77
2023-03-18T22:29:59.907Z,14.17
2023-03-18T22:32:43.346Z,14.37
2023-03-18T22:35:12.906Z,13.27
2023-03-18T22:37:39.827Z,13.67
2023-03-18T22:40:07.397Z,13.23
2023-03-18T22:42:33.815Z,14.77
2023-03-18T22:45:00.374Z,14.70
2023-03-18T22:47:26.784Z,15.20
2023-03-18T22:49:53.566Z,15.27
2023-03-18T22:52:26.964Z,15.33
2023-03-18T22:54:56.803Z,17.23
2023-03-18T22:57:28.596Z,14.73
2023-03-18T22:59:56.601Z,17.57
2023-03-18T23:02:26.438Z,15.53
2023-03-18T23:04:54.546Z,15.37
2023-03-18T23:07:32.103Z,16.67
2023-03-18T23:10:02.278Z,14.77
2023-03-18T23:12:32.475Z,15.80
2023-03-18T23:14:59.901Z,18.60
2023-03-18T23:17:28.089Z,15.57
2023-03-18T23:19:54.818Z,16.93
2023-03-18T23:22:31.267Z,18.53
2023-03-18T23:24:58.249Z,15.13
2023-03-18T23:27:26.429Z,15.40
2023-03-18T23:29:53.316Z,15.30
2023-03-18T23:32:20.874Z,15.50
2023-03-18T23:34:47.875Z,15.57
2023-03-18T23:37:15.426Z,15.90
2023-03-18T23:39:46.338Z,12.53
2023-03-18T23:42:18.529Z,13.67
2023-03-18T23:44:45.736Z,13.67
2023-03-18T23:47:13.419Z,14.67
2023-03-18T23:49:41.146Z,12.83
2023-03-18T23:52:10.763Z,13.63
2023-03-18T23:54:39.521Z,13.60
2023-03-18T23:57:07.926Z,13.93
2023-03-18T23:59:34.978Z,14.17
